Time;durP1;ratioP1;P1;durP2;ratioP2;P2;SDS_P1;SDS_P2;PMS_P1;PMS_P2;Temp;Humidity;BMP_temperature;BMP_pressure;BME280_temperature;BME280_humidity;BME280_pressure;Samples;Min_cycle;Max_cycle;Signal;HPM_P1;HPM_P2
2021/07/03 00:00:36;;;;;;;13.50;11.40;;;17.00;99.90;;;;;;5076726;28;20192;-70
2021/07/03 00:03:02;;;;;;;19.30;11.50;;;17.10;99.90;;;;;;5076658;28;20272;-69
2021/07/03 00:05:27;;;;;;;15.73;14.03;;;17.10;99.90;;;;;;5076655;28;20534;-70
2021/07/03 00:07:53;;;;;;;15.73;12.33;;;17.00;99.90;;;;;;5076468;28;20198;-69
2021/07/03 00:10:19;;;;;;;15.93;12.50;;;17.10;99.90;;;;;;5076620;28;20180;-69
2021/07/03 00:12:45;;;;;;;20.10;12.77;;;17.10;99.90;;;;;;5076654;28;20261;-69
2021/07/03 00:15:21;;;;;;;14.77;13.13;;;17.00;99.90;;;;;;5076532;28;20426;-69
2021/07/03 00:17:48;;;;;;;15.65;11.25;;;16.80;99.90;;;;;;5076521;28;20195;-69
2021/07/03 00:20:14;;;;;;;15.40;12.03;;;16.80;99.90;;;;;;5076163;28;20180;-69
2021/07/03 00:22:40;;;;;;;16.63;12.93;;;16.80;99.90;;;;;;5076319;28;20741;-69
2021/07/03 00:25:06;;;;;;;19.70;12.03;;;16.80;99.90;;;;;;5076264;28;20297;-69
2021/07/03 00:27:32;;;;;;;14.73;11.70;;;16.80;99.90;;;;;;5076196;28;20616;-69
2021/07/03 00:29:57;;;;;;;15.27;11.80;;;16.80;99.90;;;;;;5076091;28;20437;-69
2021/07/03 00:32:23;;;;;;;18.80;12.73;;;16.80;99.90;;;;;;5076142;28;20263;-69
2021/07/03 00:34:49;;;;;;;15.27;12.80;;;16.70;99.90;;;;;;5076254;28;20184;-69
2021/07/03 00:37:15;;;;;;;16.60;13.30;;;16.70;99.90;;;;;;5075946;28;20617;-69
2021/07/03 00:39:41;;;;;;;17.88;13.57;;;16.60;99.90;;;;;;5075956;28;20609;-69
2021/07/03 00:42:07;;;;;;;20.27;13.90;;;16.50;99.90;;;;;;5076231;28;20209;-69
2021/07/03 00:44:36;;;;;;;17.87;13.53;;;16.50;99.90;;;;;;5076008;28;20707;-69
2021/07/03 00:47:03;;;;;;;17.13;13.03;;;16.40;99.90;;;;;;5075945;28;20250;-70
2021/07/03 00:49:29;;;;;;;17.80;13.47;;;16.40;99.90;;;;;;5074740;28;20422;-69
2021/07/03 00:51:54;;;;;;;19.33;13.50;;;16.30;99.90;;;;;;5075946;28;20487;-70
2021/07/03 00:54:21;;;;;;;16.10;13.60;;;16.30;99.90;;;;;;5075651;28;20446;-70
2021/07/03 00:57:01;;;;;;;14.43;11.87;;;16.30;99.90;;;;;;5075665;28;20263;-70
2021/07/03 00:59:30;;;;;;;18.60;13.37;;;16.40;99.90;;;;;;5075744;28;20423;-69
2021/07/03 01:01:55;;;;;;;16.80;12.98;;;16.40;99.90;;;;;;5075684;28;20731;-69
2021/07/03 01:04:21;;;;;;;18.80;13.73;;;16.40;99.90;;;;;;5075141;28;20299;-70
2021/07/03 01:06:46;;;;;;;16.83;12.60;;;16.40;99.90;;;;;;5075686;28;20183;-69
2021/07/03 01:09:12;;;;;;;21.67;13.33;;;16.30;99.90;;;;;;5075625;28;20482;-70
2021/07/03 01:11:37;;;;;;;15.60;12.80;;;16.30;99.90;;;;;;5075702;28;20176;-70
2021/07/03 01:14:03;;;;;;;16.20;12.70;;;16.30;99.90;;;;;;5075769;28;20219;-70
2021/07/03 01:16:29;;;;;;;16.53;13.57;;;16.20;99.90;;;;;;5074494;28;20439;-70
2021/07/03 01:18:54;;;;;;;17.70;13.15;;;16.40;99.90;;;;;;5075203;28;20183;-69
2021/07/03 01:21:21;;;;;;;20.27;14.17;;;16.40;99.90;;;;;;5075254;28;20264;-70
2021/07/03 01:23:46;;;;;;;19.08;14.55;;;16.20;99.90;;;;;;5075222;28;20290;-69
2021/07/03 01:26:12;;;;;;;17.93;13.50;;;16.10;99.90;;;;;;5075265;28;20214;-69
2021/07/03 01:28:38;;;;;;;19.33;14.63;;;16.20;99.90;;;;;;5074939;28;20191;-69
2021/07/03 01:31:03;;;;;;;17.47;13.20;;;16.30;99.90;;;;;;5075119;28;20173;-69
2021/07/03 01:33:29;;;;;;;16.20;13.03;;;16.30;99.90;;;;;;5074871;28;20504;-69
2021/07/03 01:35:54;;;;;;;17.47;12.43;;;16.20;99.90;;;;;;5074881;28;20172;-69
2021/07/03 01:38:22;;;;;;;16.40;12.17;;;16.30;99.90;;;;;;5073798;28;20207;-69
2021/07/03 01:40:48;;;;;;;16.63;13.93;;;16.10;99.90;;;;;;5074975;28;20183;-71
2021/07/03 01:43:25;;;;;;;25.60;15.07;;;16.00;99.90;;;;;;5074867;28;20415;-71
2021/07/03 01:45:53;;;;;;;16.40;13.60;;;16.10;99.90;;;;;;5074694;28;20200;-71
2021/07/03 01:48:30;;;;;;;20.77;14.55;;;16.20;99.90;;;;;;5074940;28;20813;-70
2021/07/03 01:50:57;;;;;;;17.13;14.60;;;16.20;99.90;;;;;;5074687;28;20171;-69
2021/07/03 01:53:24;;;;;;;16.73;13.65;;;16.20;99.90;;;;;;5074553;28;20446;-69
2021/07/03 01:55:51;;;;;;;18.27;13.85;;;16.10;99.90;;;;;;5074617;28;20176;-71
2021/07/03 01:58:26;;;;;;;22.00;14.35;;;16.20;99.90;;;;;;5074262;28;20180;-69
2021/07/03 02:00:56;;;;;;;17.77;13.75;;;16.10;99.90;;;;;;5074485;28;20510;-69
2021/07/03 02:03:22;;;;;;;17.80;14.27;;;16.10;99.90;;;;;;5074610;28;20553;-69
2021/07/03 02:05:48;;;;;;;21.13;14.50;;;16.00;99.90;;;;;;5074349;28;20239;-70
2021/07/03 02:08:14;;;;;;;23.63;15.37;;;16.00;99.90;;;;;;5074749;28;20617;-71
2021/07/03 02:10:40;;;;;;;18.50;13.47;;;16.10;99.90;;;;;;5073323;28;20257;-70
2021/07/03 02:13:05;;;;;;;18.30;14.00;;;16.00;99.90;;;;;;5075567;28;20255;-66
2021/07/03 02:15:32;;;;;;;18.37;14.00;;;16.00;99.90;;;;;;5073618;28;20816;-65
2021/07/03 02:17:57;;;;;;;20.92;15.43;;;16.00;99.90;;;;;;5074088;28;20176;-67
2021/07/03 02:20:23;;;;;;;20.90;14.87;;;16.10;99.90;;;;;;5074050;28;20597;-69
2021/07/03 02:22:49;;;;;;;19.97;15.80;;;16.00;99.90;;;;;;5074199;28;20191;-70
2021/07/03 02:25:15;;;;;;;16.43;13.27;;;16.00;99.90;;;;;;5074180;28;20235;-68
2021/07/03 02:27:41;;;;;;;17.05;14.07;;;16.00;99.90;;;;;;5074114;28;20263;-71
2021/07/03 02:30:09;;;;;;;21.47;14.63;;;15.90;99.90;;;;;;5073899;28;20676;-66
2021/07/03 02:32:35;;;;;;;18.42;13.60;;;15.80;99.90;;;;;;5073989;28;20176;-65
2021/07/03 02:35:00;;;;;;;15.20;13.60;;;15.80;99.90;;;;;;5073974;28;20245;-69
2021/07/03 02:37:26;;;;;;;18.53;14.67;;;15.90;99.90;;;;;;5073838;28;20214;-69
2021/07/03 02:39:52;;;;;;;21.88;14.50;;;15.70;99.90;;;;;;5073730;28;20282;-68
2021/07/03 02:42:18;;;;;;;17.67;13.47;;;15.60;99.90;;;;;;5074041;28;20276;-68
2021/07/03 02:44:43;;;;;;;20.23;14.80;;;15.50;99.90;;;;;;5074108;28;20457;-66
2021/07/03 02:47:09;;;;;;;16.97;13.13;;;15.60;99.90;;;;;;5072876;28;20204;-66
2021/07/03 02:49:34;;;;;;;17.37;14.37;;;15.70;99.90;;;;;;5073628;28;20568;-65
2021/07/03 02:52:00;;;;;;;16.77;14.10;;;15.70;99.90;;;;;;5073738;28;20172;-65
2021/07/03 02:54:25;;;;;;;18.10;14.33;;;15.70;99.90;;;;;;5072615;28;20370;-66
2021/07/03 02:56:57;;;;;;;18.13;13.37;;;15.70;99.90;;;;;;5073893;28;20183;-65
2021/07/03 02:59:23;;;;;;;16.58;14.25;;;15.70;99.90;;;;;;5073540;28;20616;-65
2021/07/03 03:01:48;;;;;;;17.43;14.00;;;15.50;99.90;;;;;;5073765;28;20191;-65
2021/07/03 03:04:14;;;;;;;23.80;14.07;;;15.60;99.90;;;;;;5073509;28;20498;-65
2021/07/03 03:06:39;;;;;;;17.17;14.27;;;15.60;99.90;;;;;;5073685;28;20184;-65
2021/07/03 03:09:05;;;;;;;20.97;15.87;;;15.50;99.90;;;;;;5073391;28;20176;-65
2021/07/03 03:11:30;;;;;;;18.63;14.43;;;15.50;99.90;;;;;;5073657;28;20176;-65
2021/07/03 03:13:56;;;;;;;19.23;15.00;;;15.40;99.90;;;;;;5073573;28;20180;-67
2021/07/03 03:16:21;;;;;;;24.00;15.70;;;15.50;99.90;;;;;;5073668;28;20176;-68
2021/07/03 03:18:47;;;;;;;21.90;15.83;;;15.60;99.90;;;;;;5073220;28;20180;-69
2021/07/03 03:21:12;;;;;;;21.57;15.70;;;15.60;99.90;;;;;;5073578;28;20271;-69
2021/07/03 03:23:38;;;;;;;20.27;14.93;;;15.50;99.90;;;;;;5072331;28;20188;-69
2021/07/03 03:26:03;;;;;;;18.50;14.87;;;15.30;99.90;;;;;;5073618;28;20198;-69
2021/07/03 03:28:29;;;;;;;19.23;14.33;;;15.40;99.90;;;;;;5077066;28;20180;-69
2021/07/03 03:30:54;;;;;;;24.13;14.90;;;15.50;99.90;;;;;;5077402;28;20186;-69
2021/07/03 03:33:20;;;;;;;23.47;14.93;;;15.40;99.90;;;;;;5076346;28;20176;-69
2021/07/03 03:35:46;;;;;;;20.50;15.63;;;15.40;99.90;;;;;;5076313;28;20211;-68
2021/07/03 03:38:11;;;;;;;29.27;16.67;;;15.50;99.90;;;;;;5077027;28;20253;-68
2021/07/03 03:40:39;;;;;;;19.17;15.93;;;15.60;99.90;;;;;;5077826;28;20188;-68
2021/07/03 03:43:05;;;;;;;22.48;14.55;;;15.60;99.90;;;;;;5077092;28;20237;-68
2021/07/03 03:45:30;;;;;;;22.93;14.73;;;15.70;99.90;;;;;;5077327;28;20219;-68
2021/07/03 03:47:56;;;;;;;19.77;14.43;;;15.70;99.90;;;;;;5076863;28;20177;-69
2021/07/03 03:50:21;;;;;;;19.40;15.47;;;15.70;99.90;;;;;;5076842;28;20176;-69
2021/07/03 03:52:47;;;;;;;17.43;13.90;;;15.80;99.90;;;;;;5076835;28;20475;-69
2021/07/03 03:55:12;;;;;;;23.83;15.97;;;15.90;99.90;;;;;;5076837;28;20259;-69
2021/07/03 03:57:38;;;;;;;19.10;14.50;;;15.90;99.90;;;;;;5076710;28;20271;-69
2021/07/03 04:00:07;;;;;;;21.27;16.23;;;16.00;99.90;;;;;;5075748;28;20176;-69
2021/07/03 04:02:33;;;;;;;19.98;14.68;;;16.10;99.90;;;;;;5075721;28;20302;-70
2021/07/03 04:04:59;;;;;;;26.47;15.33;;;16.30;99.90;;;;;;5076638;28;20666;-70
2021/07/03 04:07:25;;;;;;;20.33;15.07;;;17.10;99.90;;;;;;5075869;28;20747;-70
2021/07/03 04:09:51;;;;;;;17.73;13.50;;;18.50;99.90;;;;;;5075432;28;20433;-70
2021/07/03 04:12:20;;;;;;;16.63;13.20;;;19.80;1.00;;;;;;5076865;28;20422;-70
2021/07/03 04:14:46;;;;;;;13.77;11.50;;;20.50;1.00;;;;;;5076547;28;20467;-69
2021/07/03 04:17:12;;;;;;;13.93;10.67;;;21.20;99.90;;;;;;5075242;28;20430;-69
2021/07/03 04:19:38;;;;;;;11.50;10.20;;;21.70;1.00;;;;;;5076236;28;20432;-70
2021/07/03 04:22:03;;;;;;;12.10;10.60;;;22.00;99.90;;;;;;5076522;28;20552;-69
2021/07/03 04:24:29;;;;;;;10.50;9.40;;;22.20;99.90;;;;;;5076302;28;20207;-69
2021/07/03 04:26:55;;;;;;;12.77;9.60;;;22.60;70.60;;;;;;5076292;28;20589;-67
2021/07/03 04:29:20;;;;;;;9.73;8.77;;;23.50;99.90;;;;;;5076151;28;20181;-67
2021/07/03 04:31:46;;;;;;;11.83;8.87;;;23.90;1.00;;;;;;5076149;28;20509;-67
2021/07/03 04:34:11;;;;;;;9.50;8.50;;;24.40;99.90;;;;;;5076250;28;20191;-70
2021/07/03 04:36:37;;;;;;;11.20;8.40;;;25.10;99.90;;;;;;5076116;28;20268;-70
2021/07/03 04:39:03;;;;;;;11.83;8.97;;;25.50;99.90;;;;;;5075333;28;20176;-70
2021/07/03 04:41:29;;;;;;;8.53;7.67;;;25.60;99.90;;;;;;5076149;28;20611;-70
2021/07/03 04:43:54;;;;;;;10.10;7.97;;;25.50;99.90;;;;;;5075928;28;20508;-70
2021/07/03 04:46:20;;;;;;;8.53;7.60;;;26.20;28.00;;;;;;5076402;28;20236;-69
2021/07/03 04:48:46;;;;;;;10.57;8.17;;;26.90;1.00;;;;;;5076612;28;20506;-69
2021/07/03 04:51:11;;;;;;;8.60;7.53;;;25.80;41.00;;;;;;5076888;28;20187;-69
2021/07/03 04:53:37;;;;;;;8.00;7.30;;;24.70;99.90;;;;;;5077462;28;20796;-69
2021/07/03 04:56:05;;;;;;;7.80;7.10;;;25.20;99.90;;;;;;5078306;28;20172;-71
2021/07/03 04:58:31;;;;;;;7.63;6.90;;;25.50;99.90;;;;;;5078829;28;20255;-72
2021/07/03 05:00:57;;;;;;;8.50;7.33;;;23.80;1.00;;;;;;5078299;28;20461;-71
2021/07/03 05:03:23;;;;;;;10.13;9.10;;;22.20;1.00;;;;;;5076903;28;20190;-71
2021/07/03 05:05:48;;;;;;;9.57;8.57;;;21.00;99.90;;;;;;5077936;28;20270;-71
2021/07/03 05:08:17;;;;;;;9.87;8.60;;;20.00;1.00;;;;;;5076592;28;20422;-73
2021/07/03 05:10:43;;;;;;;8.73;7.83;;;19.40;99.90;;;;;;5075687;28;20173;-73
2021/07/03 05:13:09;;;;;;;10.00;8.70;;;19.60;1.00;;;;;;5075403;28;20834;-72
2021/07/03 05:15:35;;;;;;;11.73;8.40;;;21.00;1.00;;;;;;5075247;28;20429;-69
2021/07/03 05:18:02;;;;;;;9.40;8.60;;;20.40;1.00;;;;;;5075314;28;20753;-71
2021/07/03 05:20:28;;;;;;;9.57;8.37;;;20.60;1.00;;;;;;5074355;28;20241;-72
2021/07/03 05:22:54;;;;;;;8.93;8.03;;;20.00;99.90;;;;;;5075480;28;20419;-71
2021/07/03 05:25:19;;;;;;;9.57;8.67;;;19.70;99.90;;;;;;5075589;28;20207;-70
2021/07/03 05:27:45;;;;;;;8.67;7.77;;;19.80;1.00;;;;;;5075251;28;20183;-69
2021/07/03 05:30:13;;;;;;;8.73;7.53;;;20.90;1.00;;;;;;5074995;28;20472;-69
2021/07/03 05:32:38;;;;;;;8.60;7.80;;;21.50;1.00;;;;;;5075383;28;20186;-70
2021/07/03 05:35:05;;;;;;;9.20;8.30;;;23.00;99.90;;;;;;5075161;28;20743;-70
2021/07/03 05:37:30;;;;;;;8.27;7.00;;;24.00;1.00;;;;;;5074176;28;20836;-73
2021/07/03 05:39:56;;;;;;;7.30;6.60;;;24.40;1.00;;;;;;5075150;28;20461;-67
2021/07/03 05:42:21;;;;;;;8.60;7.70;;;22.40;99.90;;;;;;5075020;28;20196;-67
2021/07/03 05:44:47;;;;;;;11.50;8.57;;;21.70;1.00;;;;;;5074964;28;20215;-67
2021/07/03 05:47:13;;;;;;;13.43;8.30;;;21.40;99.90;;;;;;5075271;28;20258;-70
2021/07/03 05:49:40;;;;;;;10.13;7.57;;;21.20;1.00;;;;;;5074950;28;20180;-67
2021/07/03 05:52:07;;;;;;;9.53;8.33;;;21.20;1.00;;;;;;5074758;28;20195;-67
2021/07/03 05:54:32;;;;;;;9.87;8.87;;;20.40;1.00;;;;;;5075043;28;20433;-67
2021/07/03 05:56:58;;;;;;;13.87;8.30;;;19.60;1.00;;;;;;5073771;28;20426;-69
2021/07/03 05:59:23;;;;;;;10.20;8.97;;;19.60;1.00;;;;;;5074692;28;20184;-70
2021/07/03 06:01:49;;;;;;;12.87;9.20;;;19.50;1.00;;;;;;5074495;28;20188;-69
2021/07/03 06:04:15;;;;;;;13.30;9.70;;;19.20;1.00;;;;;;5074551;28;20219;-69
2021/07/03 06:06:40;;;;;;;10.20;8.67;;;20.00;1.00;;;;;;5074635;28;20181;-71
2021/07/03 06:09:06;;;;;;;9.77;8.57;;;22.00;99.90;;;;;;5074424;28;20183;-71
2021/07/03 06:11:31;;;;;;;10.70;9.30;;;25.40;1.00;;;;;;5074392;28;20176;-67
2021/07/03 06:13:57;;;;;;;8.10;7.30;;;27.70;1.00;;;;;;5074485;28;20176;-67
2021/07/03 06:16:23;;;;;;;7.30;6.60;;;28.90;1.00;;;;;;5074593;28;20267;-71
2021/07/03 06:18:49;;;;;;;6.57;5.77;;;28.30;1.00;;;;;;5074449;28;20180;-67
2021/07/03 06:21:14;;;;;;;6.50;5.90;;;28.50;1.00;;;;;;5073645;28;20842;-71
2021/07/03 06:23:40;;;;;;;6.13;5.53;;;28.60;1.00;;;;;;5074646;28;20274;-72
2021/07/03 06:26:06;;;;;;;6.90;6.23;;;27.40;1.00;;;;;;5074974;28;20176;-70
2021/07/03 06:28:32;;;;;;;5.83;5.33;;;26.80;1.00;;;;;;5073934;28;20194;-70
2021/07/03 06:30:58;;;;;;;7.60;5.50;;;25.50;99.90;;;;;;5075149;28;20184;-71
2021/07/03 06:33:24;;;;;;;7.97;6.77;;;24.30;1.00;;;;;;5074327;28;20810;-71
2021/07/03 06:35:50;;;;;;;6.80;6.20;;;23.30;1.00;;;;;;5074109;28;20434;-70
2021/07/03 06:38:16;;;;;;;8.20;7.40;;;22.00;1.00;;;;;;5073352;28;20560;-69
2021/07/03 06:40:42;;;;;;;7.80;7.00;;;20.60;1.00;;;;;;5073688;28;20460;-69
2021/07/03 06:43:07;;;;;;;7.83;7.07;;;20.30;99.90;;;;;;5074350;28;20180;-70
2021/07/03 06:45:33;;;;;;;8.67;7.77;;;20.30;22.30;;;;;;5074383;28;20212;-69
2021/07/03 06:47:59;;;;;;;7.50;6.83;;;21.20;1.00;;;;;;5074355;28;20541;-70
2021/07/03 06:50:24;;;;;;;7.10;6.50;;;23.10;1.00;;;;;;5073929;28;20208;-69
2021/07/03 06:52:50;;;;;;;8.60;6.70;;;25.00;1.00;;;;;;5073790;28;20207;-70
2021/07/03 06:55:16;;;;;;;7.53;6.00;;;26.80;1.00;;;;;;5073618;28;20563;-70
2021/07/03 06:57:41;;;;;;;6.70;6.10;;;27.80;1.00;;;;;;5073865;28;20483;-70
2021/07/03 07:00:08;;;;;;;7.70;6.73;;;27.30;1.00;;;;;;5073831;28;20175;-70
2021/07/03 07:02:33;;;;;;;9.00;6.23;;;28.00;1.00;;;;;;5073268;28;20187;-70
2021/07/03 07:04:59;;;;;;;5.57;4.73;;;28.20;1.00;;;;;;5074143;28;20457;-71
2021/07/03 07:07:24;;;;;;;5.30;4.57;;;28.00;1.00;;;;;;5073511;28;20176;-69
2021/07/03 07:09:50;;;;;;;4.57;4.17;;;26.20;1.00;;;;;;5073701;28;20274;-69
2021/07/03 07:12:16;;;;;;;6.33;4.50;;;26.90;1.00;;;;;;5074178;28;20164;-70
2021/07/03 07:14:42;;;;;;;5.27;4.40;;;27.20;1.00;;;;;;5074086;28;20195;-70
2021/07/03 07:17:09;;;;;;;5.13;4.50;;;25.90;1.00;;;;;;5073913;28;20431;-72
2021/07/03 07:19:35;;;;;;;4.83;4.33;;;24.40;99.90;;;;;;5071365;28;20450;-70
2021/07/03 07:22:00;;;;;;;5.53;4.30;;;23.10;1.00;;;;;;5065212;28;20518;-70
2021/07/03 07:24:26;;;;;;;5.50;4.63;;;22.70;99.90;;;;;;5059827;28;20201;-71
2021/07/03 07:26:51;;;;;;;4.90;4.40;;;23.30;1.00;;;;;;5053540;28;20193;-71
2021/07/03 07:29:17;;;;;;;5.53;5.03;;;23.70;1.00;;;;;;5072199;28;20172;-71
2021/07/03 07:31:45;;;;;;;4.67;4.10;;;24.40;99.90;;;;;;5073615;28;20172;-69
2021/07/03 07:34:11;;;;;;;5.23;4.83;;;23.10;1.00;;;;;;5073644;28;20653;-67
2021/07/03 07:36:37;;;;;;;6.00;5.27;;;22.00;1.00;;;;;;5073589;28;20484;-69
2021/07/03 07:39:04;;;;;;;5.13;4.63;;;21.60;1.00;;;;;;5073422;28;20426;-68
2021/07/03 07:41:30;;;;;;;5.03;4.53;;;20.90;1.00;;;;;;5073570;28;20430;-69
2021/07/03 07:43:55;;;;;;;5.97;4.50;;;20.70;99.90;;;;;;5073363;28;20430;-68
2021/07/03 07:46:21;;;;;;;6.10;4.90;;;20.30;99.90;;;;;;5073498;28;20445;-68
2021/07/03 07:48:47;;;;;;;5.33;4.83;;;20.00;39.20;;;;;;5064792;28;20260;-69
2021/07/03 07:51:13;;;;;;;5.80;5.30;;;19.70;1.00;;;;;;5053387;28;20427;-69
2021/07/03 07:53:38;;;;;;;6.50;5.20;;;19.90;1.00;;;;;;5061294;28;20192;-68
2021/07/03 07:56:04;;;;;;;6.37;4.90;;;20.00;1.00;;;;;;5072100;28;20191;-69
2021/07/03 07:58:30;;;;;;;5.40;4.73;;;19.90;1.00;;;;;;5073073;28;20271;-70
2021/07/03 08:00:56;;;;;;;5.77;5.23;;;20.50;1.00;;;;;;5073559;28;20202;-70
2021/07/03 08:03:21;;;;;;;6.87;5.93;;;21.00;1.00;;;;;;5073146;28;20473;-71
2021/07/03 08:05:47;;;;;;;6.50;4.70;;;20.80;99.90;;;;;;5073374;28;20200;-70
2021/07/03 08:08:13;;;;;;;7.50;4.80;;;21.50;99.90;;;;;;5074042;28;20173;-72
2021/07/03 08:10:40;;;;;;;7.20;5.27;;;22.10;1.00;;;;;;5073271;28;20172;-72
2021/07/03 08:13:06;;;;;;;6.93;5.03;;;22.30;1.00;;;;;;5073131;28;20454;-69
2021/07/03 08:15:33;;;;;;;8.03;4.90;;;22.80;99.90;;;;;;5076396;28;20512;-67
2021/07/03 08:18:00;;;;;;;5.43;4.90;;;22.80;99.90;;;;;;5076257;28;20903;-67
2021/07/03 08:20:26;;;;;;;7.03;5.10;;;22.00;1.00;;;;;;5075324;28;20422;-67
2021/07/03 08:22:53;;;;;;;5.37;4.87;;;21.20;99.90;;;;;;5074866;28;20763;-69
2021/07/03 08:25:20;;;;;;;6.70;5.10;;;20.80;1.00;;;;;;5064515;28;20227;-70
2021/07/03 08:27:47;;;;;;;7.30;5.50;;;20.60;99.90;;;;;;5064141;28;20427;-69
2021/07/03 08:30:14;;;;;;;7.10;5.30;;;21.00;99.90;;;;;;5075917;28;20993;-69
2021/07/03 08:32:40;;;;;;;5.93;5.00;;;21.30;99.90;;;;;;5075198;28;20441;-68
2021/07/03 08:35:07;;;;;;;7.80;4.93;;;21.70;1.00;;;;;;5075988;28;20754;-69
2021/07/03 08:37:34;;;;;;;3.90;3.50;;;21.40;99.90;;;;;;5075042;28;20426;-69
2021/07/03 08:40:02;;;;;;;6.97;4.27;;;21.30;1.00;;;;;;5076074;28;20472;-71
2021/07/03 08:42:27;;;;;;;5.83;4.60;;;21.10;14.80;;;;;;5075915;28;20450;-72
2021/07/03 08:44:53;;;;;;;5.27;4.43;;;21.20;1.00;;;;;;5075532;28;20493;-70
2021/07/03 08:47:18;;;;;;;5.53;5.03;;;21.30;99.90;;;;;;5074976;28;20176;-67
2021/07/03 08:49:52;;;;;;;5.43;4.90;;;21.00;1.00;;;;;;5075890;28;20169;-66
2021/07/03 08:52:18;;;;;;;5.63;4.50;;;20.70;1.00;;;;;;5075765;28;20176;-67
2021/07/03 08:54:44;;;;;;;5.03;4.10;;;20.80;1.00;;;;;;5075860;28;20996;-68
2021/07/03 08:57:11;;;;;;;4.90;4.40;;;21.20;1.00;;;;;;5075762;28;20498;-69
2021/07/03 08:59:36;;;;;;;5.47;4.10;;;21.80;99.90;;;;;;5075864;28;20620;-69
2021/07/03 09:02:03;;;;;;;6.13;4.37;;;21.40;99.90;;;;;;5075515;28;20437;-68
2021/07/03 09:04:40;;;;;;;5.20;4.27;;;21.20;99.90;;;;;;5071626;28;20197;-71
2021/07/03 09:07:21;;;;;;;5.27;4.37;;;21.40;1.00;;;;;;5055586;28;20497;-73
2021/07/03 09:09:55;;;;;;;4.70;3.70;;;20.80;1.00;;;;;;5055821;28;20430;-72
2021/07/03 09:12:36;;;;;;;4.83;3.50;;;21.10;18.20;;;;;;5055941;28;20431;-72
2021/07/03 09:15:15;;;;;;;4.23;3.83;;;21.80;99.90;;;;;;5055813;28;20434;-71
2021/07/03 09:17:47;;;;;;;4.20;3.60;;;22.40;1.00;;;;;;5055267;28;20429;-72
2021/07/03 09:20:13;;;;;;;4.50;3.67;;;22.70;1.00;;;;;;5055207;28;20455;-73
2021/07/03 09:22:39;;;;;;;6.63;3.83;;;23.40;99.90;;;;;;5055052;28;20458;-71
2021/07/03 09:25:20;;;;;;;5.60;4.60;;;23.40;99.90;;;;;;5055234;28;20304;-72
2021/07/03 09:27:47;;;;;;;6.10;4.17;;;22.50;99.90;;;;;;5063844;28;20180;-70
2021/07/03 09:30:15;;;;;;;6.40;4.37;;;21.90;68.60;;;;;;5074955;28;20454;-71
2021/07/03 09:32:48;;;;;;;5.10;4.40;;;21.20;1.00;;;;;;5075239;28;20495;-71
2021/07/03 09:35:14;;;;;;;5.73;4.87;;;21.10;1.00;;;;;;5075457;28;20517;-71
2021/07/03 09:37:40;;;;;;;4.33;3.93;;;20.90;1.00;;;;;;5075099;28;20509;-71
2021/07/03 09:40:10;;;;;;;5.00;4.03;;;20.80;99.90;;;;;;5075263;28;20248;-72
2021/07/03 09:42:36;;;;;;;5.93;4.47;;;21.20;99.90;;;;;;5074805;28;20259;-70
2021/07/03 09:45:03;;;;;;;5.67;4.10;;;21.30;1.00;;;;;;5074881;28;20473;-71
2021/07/03 09:47:28;;;;;;;4.47;4.07;;;21.80;99.90;;;;;;5074622;28;20450;-70
2021/07/03 09:50:12;;;;;;;4.50;3.37;;;22.40;99.90;;;;;;5074851;28;20418;-70
2021/07/03 09:52:39;;;;;;;3.97;3.53;;;22.90;99.90;;;;;;5074676;28;20192;-71
2021/07/03 09:55:07;;;;;;;3.90;3.50;;;23.80;96.90;;;;;;5074409;28;20430;-70
2021/07/03 09:57:37;;;;;;;4.03;3.73;;;23.10;99.90;;;;;;5074596;28;20583;-70
2021/07/03 10:00:10;;;;;;;4.03;3.73;;;22.60;99.90;;;;;;5074443;28;20471;-66
2021/07/03 10:02:37;;;;;;;5.23;3.27;;;21.40;99.90;;;;;;5073305;28;20940;-66
2021/07/03 10:05:04;;;;;;;5.30;4.00;;;21.10;1.00;;;;;;5054351;28;20455;-67
2021/07/03 10:07:37;;;;;;;4.57;4.17;;;21.10;1.00;;;;;;5053249;28;20885;-68
2021/07/03 10:10:13;;;;;;;8.43;3.90;;;21.50;99.90;;;;;;5054179;28;20506;-68
2021/07/03 10:12:46;;;;;;;3.80;3.50;;;21.20;67.00;;;;;;5071611;28;20509;-67
2021/07/03 10:15:13;;;;;;;4.50;3.70;;;21.10;1.00;;;;;;5074041;28;20779;-67
2021/07/03 10:17:39;;;;;;;4.60;4.20;;;21.20;99.90;;;;;;5074207;28;20438;-67
2021/07/03 10:20:14;;;;;;;4.67;3.80;;;21.40;81.20;;;;;;5074345;28;20437;-69
2021/07/03 10:22:49;;;;;;;5.37;3.70;;;21.60;99.90;;;;;;5073902;28;20429;-68
2021/07/03 10:25:16;;;;;;;6.13;3.63;;;22.50;38.80;;;;;;5073869;28;20546;-67
2021/07/03 10:28:13;;;;;;;3.40;3.10;;;22.70;1.00;;;;;;5073841;28;20452;-69
2021/07/03 10:30:42;;;;;;;3.93;3.43;;;21.90;1.00;;;;;;5068439;28;20481;-70
2021/07/03 10:33:20;;;;;;;5.83;3.13;;;21.40;1.00;;;;;;5073175;28;20423;-70
2021/07/03 10:35:54;;;;;;;3.37;3.07;;;21.30;24.20;;;;;;5071843;28;20483;-70
2021/07/03 10:38:25;;;;;;;4.10;3.43;;;21.10;99.90;;;;;;5071880;28;20444;-70
2021/07/03 10:41:00;;;;;;;5.20;4.70;;;21.40;1.00;;;;;;5072470;28;20918;-70
2021/07/03 10:43:26;;;;;;;4.07;3.67;;;21.60;1.00;;;;;;5074237;28;20456;-70
2021/07/03 10:45:54;;;;;;;4.57;3.77;;;22.30;1.00;;;;;;5072814;28;20934;-70
2021/07/03 10:48:24;;;;;;;4.50;3.27;;;22.20;99.90;;;;;;5072929;28;20211;-70
2021/07/03 10:50:53;;;;;;;3.70;3.10;;;22.30;99.90;;;;;;5073332;28;20472;-70
2021/07/03 10:53:28;;;;;;;5.50;3.23;;;23.00;1.00;;;;;;5073000;28;20474;-70
2021/07/03 10:56:08;;;;;;;3.20;2.90;;;23.70;99.90;;;;;;5073647;28;20434;-70
2021/07/03 10:58:49;;;;;;;4.47;3.30;;;23.90;99.90;;;;;;5071628;28;20500;-67
2021/07/03 11:01:16;;;;;;;4.80;4.07;;;23.30;1.00;;;;;;5073197;28;21411;-67
2021/07/03 11:03:43;;;;;;;4.57;2.93;;;22.00;1.00;;;;;;5073347;28;20192;-67
2021/07/03 11:06:16;;;;;;;4.30;3.50;;;22.00;99.90;;;;;;5073583;28;20785;-67
2021/07/03 11:08:43;;;;;;;3.80;3.43;;;21.80;1.00;;;;;;5073618;28;20441;-68
2021/07/03 11:11:11;;;;;;;5.50;3.07;;;22.40;99.90;;;;;;5073212;28;20438;-69
2021/07/03 11:13:37;;;;;;;5.50;2.77;;;23.10;1.00;;;;;;5072529;28;20472;-69
2021/07/03 11:16:03;;;;;;;4.10;3.80;;;23.40;99.00;;;;;;5072714;28;20530;-69
2021/07/03 11:18:31;;;;;;;3.30;3.00;;;23.90;99.90;;;;;;5073510;28;20882;-67
2021/07/03 11:21:01;;;;;;;4.77;3.03;;;23.30;99.90;;;;;;5072643;28;20449;-67
2021/07/03 11:23:27;;;;;;;3.20;2.90;;;22.10;99.90;;;;;;5073983;28;20442;-70
2021/07/03 11:25:53;;;;;;;3.37;3.07;;;21.90;1.00;;;;;;5073676;28;20465;-69
2021/07/03 11:28:24;;;;;;;5.30;3.23;;;22.00;1.00;;;;;;5073935;28;20263;-70
2021/07/03 11:30:56;;;;;;;3.63;2.87;;;22.40;1.00;;;;;;5073086;28;20476;-70
2021/07/03 11:33:22;;;;;;;4.50;2.90;;;22.20;1.00;;;;;;5072990;28;20517;-68
2021/07/03 11:35:50;;;;;;;3.47;2.87;;;22.20;1.00;;;;;;5073733;28;20556;-67
2021/07/03 11:38:21;;;;;;;3.10;2.80;;;22.10;99.90;;;;;;5073864;28;20262;-67
2021/07/03 11:40:50;;;;;;;4.43;3.63;;;21.80;99.90;;;;;;5074048;28;20430;-68
2021/07/03 11:43:15;;;;;;;3.10;2.73;;;22.10;1.00;;;;;;5074139;28;20771;-68
2021/07/03 11:45:42;;;;;;;3.33;3.03;;;22.00;99.90;;;;;;5073158;28;20466;-68
2021/07/03 11:48:13;;;;;;;4.23;3.60;;;21.70;1.00;;;;;;5075158;28;20219;-67
2021/07/03 11:50:45;;;;;;;3.93;3.10;;;21.90;1.00;;;;;;5077626;28;20432;-67
2021/07/03 11:53:15;;;;;;;6.13;3.27;;;21.90;96.80;;;;;;5077811;28;20460;-66
2021/07/03 11:55:45;;;;;;;4.83;3.50;;;22.10;1.00;;;;;;5077711;28;20452;-65
2021/07/03 11:58:14;;;;;;;3.67;3.27;;;22.20;99.90;;;;;;5078966;28;20452;-66
2021/07/03 12:00:45;;;;;;;2.93;2.70;;;22.40;1.00;;;;;;5077997;28;20440;-66
2021/07/03 12:03:13;;;;;;;2.90;2.70;;;22.60;1.00;;;;;;5077728;28;20764;-66
2021/07/03 12:05:43;;;;;;;2.93;2.57;;;22.80;1.00;;;;;;5077192;28;20991;-67
2021/07/03 12:08:11;;;;;;;3.13;2.83;;;23.00;1.00;;;;;;5076455;28;20739;-67
2021/07/03 12:10:39;;;;;;;3.27;2.97;;;22.60;1.00;;;;;;5077405;28;20429;-68
2021/07/03 12:13:07;;;;;;;3.33;2.70;;;22.50;1.00;;;;;;5076729;28;20414;-69
2021/07/03 12:15:34;;;;;;;3.57;2.90;;;22.50;1.00;;;;;;5076775;28;20430;-70
2021/07/03 12:18:03;;;;;;;5.47;3.27;;;22.50;1.00;;;;;;5076543;28;20422;-70
2021/07/03 12:20:30;;;;;;;3.43;3.10;;;22.50;1.00;;;;;;5076792;28;20430;-68
2021/07/03 12:23:05;;;;;;;3.27;2.80;;;22.40;92.70;;;;;;5076824;28;20418;-69
2021/07/03 12:25:32;;;;;;;4.80;3.43;;;22.00;99.90;;;;;;5076788;28;20518;-67
2021/07/03 12:28:01;;;;;;;6.40;3.30;;;22.10;99.90;;;;;;5076844;28;20422;-67
2021/07/03 12:30:29;;;;;;;3.30;3.00;;;22.10;99.90;;;;;;5076920;28;20437;-67
2021/07/03 12:33:08;;;;;;;5.23;3.10;;;22.40;1.00;;;;;;5077439;28;20505;-68
2021/07/03 12:35:39;;;;;;;4.90;2.90;;;22.40;1.00;;;;;;5076702;28;20460;-67
2021/07/03 12:38:05;;;;;;;3.33;3.03;;;22.70;1.00;;;;;;5076972;28;20499;-67
2021/07/03 12:40:37;;;;;;;4.03;3.23;;;22.90;1.00;;;;;;5077259;28;20448;-69
2021/07/03 12:43:03;;;;;;;4.00;3.60;;;22.70;1.00;;;;;;5076776;28;20433;-70